Time;durP1;ratioP1;P1;durP2;ratioP2;P2;SDS_P1;SDS_P2;PMS_P1;PMS_P2;Temp;Humidity;BMP_temperature;BMP_pressure;BME280_temperature;BME280_humidity;BME280_pressure;Samples;Min_cycle;Max_cycle;Signal;HPM_P1;HPM_P2
2022/08/09 00:02:07;;;;;;;15.88;12.23;;;23.40;99.90;;;;;;5056206;28;20419;-82
2022/08/09 00:04:34;;;;;;;16.55;12.23;;;23.30;99.90;;;;;;5054684;28;20021;-82
2022/08/09 00:07:01;;;;;;;14.55;13.02;;;23.20;99.90;;;;;;5071113;28;20036;-81
2022/08/09 00:09:27;;;;;;;13.95;12.25;;;23.20;99.90;;;;;;5076351;28;20035;-82
2022/08/09 00:11:53;;;;;;;12.52;11.30;;;23.10;99.90;;;;;;5075843;28;20024;-81
2022/08/09 00:14:20;;;;;;;18.90;11.35;;;23.00;99.90;;;;;;5075892;28;20037;-80
2022/08/09 00:16:45;;;;;;;12.45;9.85;;;22.90;99.90;;;;;;5075719;28;20037;-81
2022/08/09 00:19:11;;;;;;;14.13;11.43;;;22.80;99.90;;;;;;5076092;28;20044;-80
2022/08/09 00:21:38;;;;;;;12.70;10.23;;;22.70;99.90;;;;;;5073011;28;20055;-81
2022/08/09 00:24:04;;;;;;;12.63;10.20;;;22.60;99.90;;;;;;5057894;28;20036;-80
2022/08/09 00:26:30;;;;;;;17.88;11.57;;;22.60;99.90;;;;;;5063690;28;20032;-81
2022/08/09 00:28:57;;;;;;;17.67;14.02;;;22.50;99.90;;;;;;5063402;28;20106;-81
2022/08/09 00:31:23;;;;;;;18.15;12.00;;;22.40;99.90;;;;;;5074610;28;20459;-82
2022/08/09 00:33:50;;;;;;;18.05;11.85;;;22.30;99.90;;;;;;5074354;28;20107;-84
2022/08/09 00:36:16;;;;;;;23.98;13.15;;;22.20;99.90;;;;;;5060107;28;20067;-86
2022/08/09 00:38:43;;;;;;;24.00;12.60;;;22.20;99.90;;;;;;5073296;28;20340;-85
2022/08/09 00:41:09;;;;;;;17.88;11.98;;;22.10;99.90;;;;;;5073255;28;20029;-85
2022/08/09 00:43:36;;;;;;;21.05;13.18;;;21.90;99.90;;;;;;5067437;28;20025;-86
2022/08/09 00:46:26;;;;;;;19.90;13.02;;;21.80;99.90;;;;;;5051533;28;20048;-87
2022/08/09 00:48:55;;;;;;;18.00;13.52;;;21.70;99.90;;;;;;4987519;28;20039;-89
2022/08/09 00:51:43;;;;;;;23.55;13.75;;;21.70;99.90;;;;;;4977067;28;20062;-87
2022/08/09 00:54:09;;;;;;;24.48;17.77;;;21.70;99.90;;;;;;4991232;28;20030;-86
2022/08/09 00:56:35;;;;;;;27.52;16.38;;;21.60;99.90;;;;;;4979976;28;20540;-85
2022/08/09 00:59:01;;;;;;;29.55;17.67;;;21.60;99.90;;;;;;4991029;28;20464;-83
2022/08/09 01:01:34;;;;;;;23.38;15.90;;;21.60;99.90;;;;;;4995539;28;20469;-82
2022/08/09 01:04:25;;;;;;;24.00;16.67;;;21.50;99.90;;;;;;4995441;28;20037;-83
2022/08/09 01:06:55;;;;;;;26.65;15.88;;;21.40;99.90;;;;;;4998048;28;20481;-83
2022/08/09 01:09:47;;;;;;;25.00;16.63;;;21.40;99.90;;;;;;5011436;28;20511;-82
2022/08/09 01:12:46;;;;;;;24.13;14.90;;;21.20;99.90;;;;;;5011159;28;20083;-81
2022/08/09 01:15:23;;;;;;;29.52;16.52;;;21.20;99.90;;;;;;4993746;28;20045;-81
2022/08/09 01:18:11;;;;;;;24.05;16.98;;;21.10;99.90;;;;;;5011675;28;20496;-82
2022/08/09 01:20:47;;;;;;;23.10;16.10;;;21.10;99.90;;;;;;5048393;28;20070;-81
2022/08/09 01:23:37;;;;;;;26.50;17.05;;;21.10;99.90;;;;;;5066197;28;20075;-82
2022/08/09 01:26:21;;;;;;;22.42;17.52;;;21.00;99.90;;;;;;5057453;28;20064;-82
2022/08/09 01:28:52;;;;;;;19.35;15.43;;;21.00;99.90;;;;;;5065732;28;20051;-82
2022/08/09 01:31:21;;;;;;;20.23;15.90;;;20.90;99.90;;;;;;5053361;28;20024;-82
2022/08/09 01:33:48;;;;;;;25.23;16.15;;;20.90;99.90;;;;;;5054030;28;20036;-82
2022/08/09 01:36:19;;;;;;;20.20;15.80;;;20.80;99.90;;;;;;5065312;28;20040;-83
2022/08/09 01:38:47;;;;;;;22.10;16.58;;;20.80;99.90;;;;;;5072044;28;20066;-83
2022/08/09 01:41:26;;;;;;;20.75;16.17;;;20.80;99.90;;;;;;5069041;28;20486;-83
2022/08/09 01:43:56;;;;;;;18.75;14.88;;;20.80;99.90;;;;;;5046497;28;20025;-83
2022/08/09 01:46:32;;;;;;;24.05;15.23;;;20.80;99.90;;;;;;5065747;28;20028;-84
2022/08/09 01:49:07;;;;;;;23.05;15.60;;;20.80;99.90;;;;;;5073314;28;20063;-83
2022/08/09 01:51:35;;;;;;;21.98;16.30;;;20.80;99.90;;;;;;5059584;28;20021;-84
2022/08/09 01:54:03;;;;;;;22.52;16.23;;;20.80;99.90;;;;;;5055079;28;20017;-83
2022/08/09 01:56:32;;;;;;;21.35;16.55;;;20.80;99.90;;;;;;5060457;28;20029;-84
2022/08/09 01:59:02;;;;;;;21.92;16.67;;;20.80;99.90;;;;;;5053633;28;20430;-84
2022/08/09 02:01:30;;;;;;;22.20;15.90;;;20.80;99.90;;;;;;5054150;28;20025;-83
2022/08/09 02:03:58;;;;;;;18.90;16.02;;;20.80;99.90;;;;;;5053296;28;20116;-83
2022/08/09 02:09:12;;;;;;;20.10;15.80;;;20.80;99.90;;;;;;5048416;28;20090;-83
2022/08/09 02:11:38;;;;;;;22.30;16.35;;;20.70;99.90;;;;;;5053712;28;20048;-83
2022/08/09 02:14:06;;;;;;;19.90;16.10;;;20.70;99.90;;;;;;5065449;28;20056;-84
2022/08/09 02:16:36;;;;;;;23.58;16.42;;;20.80;99.90;;;;;;5067031;28;20107;-85
2022/08/09 02:19:03;;;;;;;28.73;18.33;;;20.70;99.90;;;;;;5073411;28;20033;-82
2022/08/09 02:21:36;;;;;;;21.45;17.05;;;20.70;99.90;;;;;;5057319;28;20033;-82
2022/08/09 02:24:03;;;;;;;22.02;16.52;;;20.70;99.90;;;;;;5065450;28;20025;-83
2022/08/09 02:26:33;;;;;;;20.55;17.35;;;20.70;99.90;;;;;;5065699;28;20033;-83
2022/08/09 02:29:04;;;;;;;19.75;16.50;;;20.70;99.90;;;;;;5068777;28;20036;-82
2022/08/09 02:31:35;;;;;;;28.23;18.70;;;20.70;99.90;;;;;;5053181;28;20028;-83
2022/08/09 02:34:07;;;;;;;22.92;17.95;;;20.70;99.90;;;;;;5053194;28;20025;-83
2022/08/09 02:36:38;;;;;;;24.00;18.45;;;20.70;99.90;;;;;;5056946;28;20040;-85
2022/08/09 02:39:08;;;;;;;22.48;17.25;;;20.70;99.90;;;;;;5045480;28;20035;-84
2022/08/09 02:41:59;;;;;;;19.83;17.60;;;20.70;99.90;;;;;;5072687;28;20020;-83
2022/08/09 02:44:34;;;;;;;22.55;16.08;;;20.60;99.90;;;;;;5073496;28;20033;-83
2022/08/09 02:47:05;;;;;;;20.00;15.82;;;20.60;99.90;;;;;;5058591;28;20439;-83
2022/08/09 02:49:40;;;;;;;21.88;17.00;;;20.60;99.90;;;;;;5056190;28;20039;-82
2022/08/09 02:52:11;;;;;;;21.63;15.98;;;20.60;99.90;;;;;;5065542;28;20028;-83
2022/08/09 02:54:38;;;;;;;24.65;16.52;;;20.60;99.90;;;;;;5056007;28;20460;-84
2022/08/09 02:57:05;;;;;;;20.52;14.88;;;20.50;99.90;;;;;;5073819;28;20025;-83
2022/08/09 02:59:34;;;;;;;18.08;15.95;;;20.40;99.90;;;;;;5075001;28;20028;-84
2022/08/09 03:02:01;;;;;;;17.88;15.38;;;20.40;99.90;;;;;;5076296;28;20116;-84
2022/08/09 03:04:29;;;;;;;20.10;15.98;;;20.40;99.90;;;;;;5061014;28;20028;-83
2022/08/09 03:06:57;;;;;;;23.02;15.52;;;20.40;99.90;;;;;;5063105;28;20048;-82
2022/08/09 03:09:24;;;;;;;18.83;14.25;;;20.40;99.90;;;;;;5056894;28;20031;-83
2022/08/09 03:11:51;;;;;;;21.60;14.65;;;20.30;99.90;;;;;;5057640;28;20035;-83
2022/08/09 03:14:19;;;;;;;21.75;14.10;;;20.30;99.90;;;;;;5064064;28;20067;-82
2022/08/09 03:16:46;;;;;;;22.23;14.43;;;20.30;99.90;;;;;;5060155;28;20044;-82
2022/08/09 03:19:15;;;;;;;20.05;16.13;;;20.20;99.90;;;;;;5063888;28;20068;-83
2022/08/09 03:21:43;;;;;;;22.45;14.00;;;20.20;99.90;;;;;;5075989;28;20035;-83
2022/08/09 03:24:09;;;;;;;21.45;14.38;;;20.10;99.90;;;;;;5074078;28;20069;-82
2022/08/09 03:26:37;;;;;;;16.35;13.18;;;20.10;99.90;;;;;;5069070;28;20060;-82
2022/08/09 03:29:03;;;;;;;17.55;13.30;;;20.00;99.90;;;;;;5072433;28;20047;-82
2022/08/09 03:31:29;;;;;;;15.05;12.63;;;20.00;99.90;;;;;;5056555;28;20029;-82
2022/08/09 03:33:57;;;;;;;18.30;14.30;;;20.00;99.90;;;;;;5049449;28;20068;-82
2022/08/09 03:36:23;;;;;;;25.75;14.20;;;20.00;99.90;;;;;;5055151;28;20419;-83
2022/08/09 03:38:49;;;;;;;20.98;15.27;;;19.90;99.90;;;;;;5056522;28;20029;-84
2022/08/09 03:41:15;;;;;;;18.30;15.90;;;19.90;99.90;;;;;;5072936;28;20031;-83
2022/08/09 03:43:41;;;;;;;18.85;15.15;;;20.00;99.90;;;;;;5070710;28;20029;-83
2022/08/09 03:46:07;;;;;;;20.25;14.93;;;19.90;99.90;;;;;;5055183;28;20041;-83
2022/08/09 03:48:35;;;;;;;19.13;14.75;;;19.90;99.90;;;;;;5062132;28;20513;-83
2022/08/09 03:51:05;;;;;;;22.50;15.35;;;19.90;99.90;;;;;;5061535;28;20027;-83
2022/08/09 03:53:33;;;;;;;19.50;15.27;;;19.90;99.90;;;;;;5073975;28;20027;-83
2022/08/09 03:55:59;;;;;;;21.50;13.95;;;19.90;99.90;;;;;;5054982;28;20036;-84
2022/08/09 03:58:25;;;;;;;18.98;13.45;;;19.90;99.90;;;;;;5056143;28;20059;-84
2022/08/09 04:00:53;;;;;;;16.77;12.57;;;19.90;99.90;;;;;;5055793;28;20052;-83
2022/08/09 04:03:20;;;;;;;20.77;13.23;;;19.90;99.90;;;;;;5054856;28;20025;-83
2022/08/09 04:05:46;;;;;;;19.60;12.60;;;20.00;99.90;;;;;;5055812;28;20063;-83
2022/08/09 04:08:12;;;;;;;15.48;12.13;;;19.90;99.90;;;;;;5056853;28;20032;-82
2022/08/09 04:10:38;;;;;;;16.88;11.18;;;19.90;99.90;;;;;;5067898;28;20448;-83
2022/08/09 04:13:10;;;;;;;18.58;12.40;;;19.80;99.90;;;;;;5071541;28;20032;-83
2022/08/09 04:15:36;;;;;;;;;;;19.90;99.90;;;;;;5056075;28;20021;-83
2022/08/09 04:18:03;;;;;;;18.67;12.25;;;19.90;99.90;;;;;;5070379;28;20343;-83
2022/08/09 04:20:29;;;;;;;18.17;12.65;;;19.90;99.90;;;;;;5062677;28;20021;-84
2022/08/09 04:22:55;;;;;;;20.25;12.13;;;19.90;99.90;;;;;;5055309;28;20032;-84
2022/08/09 04:25:21;;;;;;;16.83;11.30;;;19.90;99.90;;;;;;5062215;28;20032;-83
2022/08/09 04:27:47;;;;;;;14.63;11.55;;;20.00;99.90;;;;;;5066653;28;20029;-84
2022/08/09 04:30:14;;;;;;;16.17;11.70;;;19.90;99.90;;;;;;5065039;28;20390;-84
2022/08/09 04:32:41;;;;;;;17.33;11.77;;;19.90;99.90;;;;;;5070307;28;20032;-83
2022/08/09 04:35:09;;;;;;;19.13;11.77;;;19.90;99.90;;;;;;5070040;28;20029;-83
2022/08/09 04:37:35;;;;;;;15.20;11.30;;;20.00;99.90;;;;;;5055567;28;20059;-82
2022/08/09 04:40:01;;;;;;;15.88;10.82;;;20.00;99.90;;;;;;5065449;28;20033;-82
2022/08/09 04:42:28;;;;;;;18.15;11.13;;;20.10;99.90;;;;;;5073178;28;20100;-83
2022/08/09 04:44:58;;;;;;;15.98;9.43;;;20.20;99.90;;;;;;5063434;28;20405;-83
2022/08/09 04:47:25;;;;;;;15.35;9.15;;;20.20;99.90;;;;;;5053781;28;20127;-82
2022/08/09 04:49:51;;;;;;;13.60;9.38;;;20.20;99.90;;;;;;5064825;28;20043;-83
2022/08/09 04:52:18;;;;;;;16.88;9.82;;;20.10;99.90;;;;;;5055173;28;20029;-82
2022/08/09 04:54:44;;;;;;;12.00;9.35;;;20.10;99.90;;;;;;5054972;28;20467;-84
2022/08/09 04:57:10;;;;;;;13.15;9.15;;;20.20;99.90;;;;;;5061863;28;20063;-83
2022/08/09 04:59:36;;;;;;;13.20;8.32;;;20.20;99.90;;;;;;5071157;28;20029;-83
2022/08/09 05:02:02;;;;;;;10.50;8.23;;;20.20;99.90;;;;;;5068774;28;20052;-83
2022/08/09 05:04:28;;;;;;;13.10;10.35;;;20.30;99.90;;;;;;5073906;28;20408;-83
2022/08/09 05:06:54;;;;;;;14.68;8.75;;;20.30;99.90;;;;;;5052566;28;20060;-83
2022/08/09 05:09:20;;;;;;;11.32;8.18;;;20.30;99.90;;;;;;5065471;28;20379;-82
2022/08/09 05:11:46;;;;;;;10.05;8.07;;;20.30;99.90;;;;;;5072647;28;20036;-83
2022/08/09 05:14:12;;;;;;;14.80;9.40;;;20.40;99.90;;;;;;5072221;28;20025;-83
2022/08/09 05:16:38;;;;;;;13.80;8.40;;;20.40;99.90;;;;;;5070979;28;20040;-83
2022/08/09 05:19:04;;;;;;;12.93;8.85;;;20.30;99.90;;;;;;5057639;28;20096;-83
2022/08/09 05:21:30;;;;;;;14.95;8.10;;;20.30;99.90;;;;;;5069752;28;20029;-83
2022/08/09 05:23:56;;;;;;;12.52;8.85;;;20.40;99.90;;;;;;5056895;28;20415;-83
2022/08/09 05:26:22;;;;;;;13.20;7.75;;;20.40;99.90;;;;;;5053619;28;20033;-83
2022/08/09 05:28:48;;;;;;;19.42;8.88;;;20.50;99.90;;;;;;5066564;28;20060;-83
2022/08/09 05:31:14;;;;;;;14.23;8.13;;;20.40;99.90;;;;;;5067086;28;20032;-83
2022/08/09 05:33:40;;;;;;;12.05;8.00;;;20.50;99.90;;;;;;5073640;28;20029;-82
2022/08/09 05:36:06;;;;;;;13.05;8.40;;;20.50;99.90;;;;;;5072084;28;20111;-83
2022/08/09 05:38:32;;;;;;;16.20;8.63;;;20.60;99.90;;;;;;5055979;28;20021;-82
2022/08/09 05:40:58;;;;;;;11.48;8.35;;;20.50;99.90;;;;;;5057584;28;20033;-83
2022/08/09 05:43:24;;;;;;;16.08;9.90;;;20.60;99.90;;;;;;5055161;28;20112;-82
2022/08/09 05:45:49;;;;;;;11.55;7.80;;;20.50;99.90;;;;;;5053573;28;20112;-83
2022/08/09 05:48:15;;;;;;;14.07;8.48;;;20.60;99.90;;;;;;5053855;28;20033;-83
2022/08/09 05:50:43;;;;;;;13.23;8.85;;;20.60;99.90;;;;;;5062893;28;20078;-83
2022/08/09 05:53:10;;;;;;;11.95;8.27;;;20.60;99.90;;;;;;5072897;28;20075;-83
2022/08/09 05:55:35;;;;;;;12.63;8.38;;;20.60;99.90;;;;;;5073059;28;20028;-82
2022/08/09 05:58:01;;;;;;;8.88;7.55;;;20.70;99.90;;;;;;5071875;28;20473;-84
2022/08/09 06:00:29;;;;;;;13.07;8.25;;;20.70;99.90;;;;;;5064069;28;20025;-83
2022/08/09 06:02:56;;;;;;;10.95;8.30;;;20.80;99.90;;;;;;5060830;28;20036;-81
2022/08/09 06:05:23;;;;;;;16.52;8.45;;;20.80;99.90;;;;;;5072952;28;20024;-81
2022/08/09 06:07:49;;;;;;;9.60;7.63;;;20.90;99.90;;;;;;5070849;28;20035;-81
2022/08/09 06:10:15;;;;;;;11.85;8.18;;;20.90;99.90;;;;;;5065455;28;20119;-83
2022/08/09 06:12:42;;;;;;;11.55;7.97;;;21.00;99.90;;;;;;5070122;28;20450;-83
2022/08/09 06:15:08;;;;;;;13.27;7.88;;;21.10;99.90;;;;;;5069942;28;20029;-82
2022/08/09 06:17:34;;;;;;;10.32;7.30;;;21.10;99.90;;;;;;5070971;28;20352;-81
2022/08/09 06:19:59;;;;;;;10.85;7.85;;;21.10;99.90;;;;;;5054121;28;20530;-82
2022/08/09 06:22:25;;;;;;;11.15;7.43;;;21.20;99.90;;;;;;5054738;28;20036;-82
2022/08/09 06:24:51;;;;;;;11.18;8.07;;;21.20;99.90;;;;;;5055561;28;20529;-83
2022/08/09 06:27:17;;;;;;;13.23;7.45;;;21.30;99.90;;;;;;5070042;28;20037;-82
2022/08/09 06:29:43;;;;;;;12.32;7.72;;;21.30;99.90;;;;;;5067695;28;20562;-82
2022/08/09 06:32:09;;;;;;;8.13;7.32;;;21.30;99.90;;;;;;5060209;28;20112;-82
2022/08/09 06:34:35;;;;;;;13.70;8.23;;;21.30;99.90;;;;;;5070267;28;20447;-82
2022/08/09 06:37:00;;;;;;;14.02;7.75;;;21.50;99.90;;;;;;5053112;28;20479;-82
2022/08/09 06:39:28;;;;;;;12.95;7.90;;;21.50;99.90;;;;;;5072308;28;20024;-82
2022/08/09 06:41:54;;;;;;;17.60;7.70;;;21.50;99.90;;;;;;5070871;28;20029;-82
2022/08/09 06:44:20;;;;;;;17.15;7.80;;;21.40;99.90;;;;;;5060230;28;20082;-82
2022/08/09 06:46:47;;;;;;;8.52;7.63;;;21.50;99.90;;;;;;5069976;28;20036;-83
2022/08/09 06:49:13;;;;;;;11.23;8.05;;;21.50;99.90;;;;;;5056518;28;20022;-82
2022/08/09 06:51:39;;;;;;;12.82;9.88;;;21.60;99.90;;;;;;5062468;28;20095;-82
2022/08/09 06:54:04;;;;;;;19.92;9.10;;;21.60;99.90;;;;;;5071229;28;20036;-82
2022/08/09 06:56:30;;;;;;;13.15;8.25;;;21.60;99.90;;;;;;5057334;28;20024;-82
2022/08/09 06:58:56;;;;;;;13.88;9.23;;;21.70;99.90;;;;;;5052038;28;20112;-83
2022/08/09 07:01:22;;;;;;;14.40;9.43;;;21.80;99.90;;;;;;5055157;28;20036;-82
2022/08/09 07:03:48;;;;;;;9.90;7.88;;;21.80;99.90;;;;;;5054870;28;20029;-81
2022/08/09 07:06:14;;;;;;;15.40;8.77;;;21.90;99.90;;;;;;5053181;28;20453;-81
2022/08/09 07:08:40;;;;;;;12.10;8.50;;;21.80;99.90;;;;;;5063900;28;20030;-81
2022/08/09 07:11:06;;;;;;;10.82;9.35;;;21.90;99.90;;;;;;5060523;28;20016;-83
2022/08/09 07:13:32;;;;;;;12.95;8.82;;;22.00;99.90;;;;;;5069472;28;20170;-83
2022/08/09 07:15:58;;;;;;;10.88;8.70;;;22.10;99.90;;;;;;5069226;28;20108;-83
2022/08/09 07:18:23;;;;;;;14.95;9.63;;;22.10;99.90;;;;;;5056605;28;20025;-83
2022/08/09 07:20:49;;;;;;;12.98;8.32;;;22.10;99.90;;;;;;5055180;28;20035;-81
2022/08/09 07:23:16;;;;;;;13.85;10.05;;;22.10;99.90;;;;;;5071167;28;20103;-82
2022/08/09 07:25:42;;;;;;;11.95;9.00;;;22.10;99.90;;;;;;5070901;28;20042;-81
2022/08/09 07:28:08;;;;;;;19.10;9.98;;;22.10;99.90;;;;;;5065154;28;20025;-83
2022/08/09 07:30:34;;;;;;;18.33;11.07;;;22.00;99.90;;;;;;5064496;28;20479;-84
2022/08/09 07:33:00;;;;;;;20.60;11.45;;;22.00;99.90;;;;;;5067697;28;20025;-82
2022/08/09 07:35:26;;;;;;;15.00;9.60;;;22.00;99.90;;;;;;5055966;28;20035;-82
2022/08/09 07:37:52;;;;;;;10.98;9.75;;;22.00;99.90;;;;;;5060510;28;20408;-81
2022/08/09 07:40:18;;;;;;;13.68;8.02;;;22.00;99.90;;;;;;5062879;28;20036;-81
2022/08/09 07:42:58;;;;;;;14.68;9.30;;;22.20;99.90;;;;;;5056178;28;20028;-83
2022/08/09 07:45:26;;;;;;;13.75;8.55;;;22.30;99.90;;;;;;5067120;28;20050;-82
2022/08/09 07:47:52;;;;;;;13.55;9.05;;;22.30;99.90;;;;;;5056079;28;20047;-83
2022/08/09 07:50:20;;;;;;;15.25;9.88;;;22.30;99.90;;;;;;5056501;28;20043;-83
2022/08/09 07:52:45;;;;;;;14.55;9.80;;;22.30;99.90;;;;;;5055356;28;20025;-82
2022/08/09 07:55:11;;;;;;;12.85;9.18;;;22.40;99.90;;;;;;5057086;28;20027;-83
2022/08/09 07:57:38;;;;;;;18.13;10.18;;;22.50;99.90;;;;;;5062503;28;20036;-84
2022/08/09 08:00:05;;;;;;;13.95;10.45;;;22.60;99.90;;;;;;5055417;28;20025;-83
2022/08/09 08:02:31;;;;;;;14.73;8.98;;;22.60;99.90;;;;;;5072196;28;20071;-84
2022/08/09 08:04:57;;;;;;;14.48;10.15;;;22.90;99.90;;;;;;5074734;28;20056;-83
2022/08/09 08:07:22;;;;;;;10.70;8.68;;;23.10;99.90;;;;;;5050031;28;20060;-84
2022/08/09 08:09:49;;;;;;;13.63;9.70;;;23.30;99.90;;;;;;5054277;28;20033;-84
2022/08/09 08:12:14;;;;;;;13.25;10.73;;;23.40;99.90;;;;;;5059513;28;20029;-84
2022/08/09 08:14:40;;;;;;;13.23;10.45;;;23.50;99.90;;;;;;5064490;28;20029;-83
2022/08/09 08:17:06;;;;;;;12.32;10.80;;;;;;;;;;5055214;28;20037;-83
2022/08/09 08:19:33;;;;;;;12.05;10.50;;;;;;;;;;5055925;28;20021;-84
2022/08/09 08:21:59;;;;;;;12.27;11.07;;;;;;;;;;5055427;28;20095;-83
2022/08/09 08:24:25;;;;;;;16.42;12.43;;;;;;;;;;5054265;28;20094;-82
2022/08/09 08:26:51;;;;;;;18.95;13.88;;;;;;;;;;5055093;28;20025;-84
2022/08/09 08:29:18;;;;;;;15.95;11.43;;;;;;;;;;5055342;28;20075;-83
2022/08/09 08:31:45;;;;;;;15.15;9.65;;;;;;;;;;5054866;28;20547;-82
2022/08/09 08:34:11;;;;;;;13.60;10.30;;;;;;;;;;5054752;28;20033;-84
2022/08/09 08:36:37;;;;;;;14.93;10.90;;;;;;;;;;5055019;28;20107;-84
2022/08/09 08:39:04;;;;;;;15.32;10.75;;;;;;;;;;5053883;28;20032;-84
2022/08/09 08:41:30;;;;;;;13.48;11.13;;;;;;;;;;5055104;28;20064;-85
2022/08/09 08:43:58;;;;;;;14.15;10.73;;;;;;;;;;5055123;28;20033;-84
2022/08/09 08:46:25;;;;;;;17.17;10.60;;;;;;;;;;5053636;28;20120;-86
2022/08/09 08:48:52;;;;;;;14.57;10.38;;;;;;;;;;5054425;28;20120;-85
2022/08/09 08:51:18;;;;;;;13.32;10.20;;;;;;;;;;5049792;28;20029;-84
2022/08/09 08:53:44;;;;;;;11.77;10.45;;;;;;;;;;5053783;28;20021;-84
2022/08/09 08:56:11;;;;;;;12.82;11.27;;;;;;;;;;5054777;28;20032;-85
2022/08/09 08:58:37;;;;;;;12.45;10.82;;;;;;;;;;5054553;28;20371;-85
2022/08/09 09:01:03;;;;;;;12.95;10.23;;;;;;;;;;5074200;28;20096;-87
2022/08/09 09:03:33;;;;;;;11.73;10.55;;;;;;;;;;5071003;28;20017;-86
2022/08/09 09:06:01;;;;;;;12.15;11.13;;;;;;;;;;5070660;28;20037;-87
2022/08/09 09:08:33;;;;;;;12.63;10.82;;;;;;;;;;5059636;28;20463;-87
2022/08/09 09:11:03;;;;;;;13.48;11.27;;;;;;;;;;5053189;28;20033;-86
2022/08/09 09:13:48;;;;;;;15.27;10.40;;;;;;;;;;5054004;28;20055;-87
2022/08/09 09:16:15;;;;;;;16.33;9.82;;;;;;;;;;5051676;28;20032;-87
2022/08/09 09:18:41;;;;;;;12.98;10.32;;;;;;;;;;5053357;28;20471;-85
2022/08/09 09:21:07;;;;;;;11.95;9.80;;;;;;;;;;5053135;28;20048;-87
2022/08/09 09:23:41;;;;;;;11.02;9.85;;;;;;;;;;5053115;28;20120;-87
2022/08/09 09:26:07;;;;;;;10.57;9.40;;;;;;;;;;5053461;28;20537;-86
2022/08/09 09:28:35;;;;;;;11.10;9.63;;;;;;;;;;5059450;28;20025;-86
2022/08/09 09:31:01;;;;;;;12.25;10.32;;;;;;;;;;5053460;28;20368;-86
2022/08/09 09:33:35;;;;;;;10.88;9.75;;;;;;;;;;5052823;28;20107;-88
2022/08/09 09:36:07;;;;;;;15.00;10.13;;;;;;;;;;5053273;28;20024;-88
2022/08/09 09:38:43;;;;;;;10.85;9.77;;;;;;;;;;5059565;28;20024;-88
2022/08/09 09:41:10;;;;;;;12.27;9.48;;;;;;;;;;5061377;28;20017;-88
2022/08/09 09:43:36;;;;;;;13.75;9.40;;;;;;;;;;5070484;28;20033;-88
2022/08/09 09:46:04;;;;;;;17.13;10.02;;;;;;;;;;5071569;28;20032;-90
2022/08/09 09:48:39;;;;;;;10.52;9.52;;;;;;;;;;5068719;28;20020;-94
2022/08/09 09:51:05;;;;;;;14.30;10.13;;;;;;;;;;5054022;28;20096;-89
2022/08/09 09:53:32;;;;;;;11.18;9.98;;;;;;;;;;5055517;28;20371;-88
2022/08/09 09:55:58;;;;;;;12.93;10.93;;;;;;;;;;5060870;28;20021;-88
2022/08/09 10:01:39;;;;;;;11.32;10.13;;;;;;;;;;5029528;28;20773;-88
2022/08/09 10:04:15;;;;;;;15.40;11.38;;;;;;;;;;5030687;28;20029;-86
2022/08/09 10:10:26;;;;;;;11.60;10.40;;;;;;;;;;4989011;28;20476;-88
2022/08/09 10:13:04;;;;;;;13.98;10.52;;;;;;;;;;5030906;28;20112;-89
2022/08/09 10:16:03;;;;;;;;;;;;;;;;;;;;;
2022/08/09 10:18:33;;;;;;;12.30;11.15;;;;;;;;;;5031682;28;20013;-89
2022/08/09 10:21:09;;;;;;;15.98;11.00;;;;;;;;;;5031265;28;20030;-88
2022/08/09 10:23:38;;;;;;;11.77;10.18;;;;;;;;;;5031248;28;20022;-89
2022/08/09 10:26:05;;;;;;;12.82;11.50;;;;;;;;;;5030284;28;20034;-87
2022/08/09 10:28:37;;;;;;;12.57;11.00;;;;;;;;;;5030617;28;20025;-86
2022/08/09 10:31:03;;;;;;;11.75;10.65;;;;;;;;;;5032524;28;20028;-86
2022/08/09 10:33:30;;;;;;;14.30;11.15;;;;;;;;;;5052383;28;20422;-85
2022/08/09 10:35:56;;;;;;;12.00;10.38;;;;;;;;;;5052730;28;20044;-85
2022/08/09 10:38:23;;;;;;;11.82;10.68;;;;;;;;;;5051602;28;20021;-85
2022/08/09 10:40:49;;;;;;;13.35;10.43;;;;;;;;;;5051060;28;20035;-87
2022/08/09 10:43:15;;;;;;;15.20;10.73;;;;;;;;;;5051895;28;20109;-86
2022/08/09 10:45:42;;;;;;;14.80;10.93;;;;;;;;;;5052323;28;20025;-86
2022/08/09 10:48:32;;;;;;;11.73;10.48;;;;;;;;;;5052168;28;20025;-86
2022/08/09 10:51:11;;;;;;;11.88;10.65;;;;;;;;;;5052228;28;20036;-86
2022/08/09 10:53:52;;;;;;;13.25;10.35;;;;;;;;;;5052249;28;20017;-85
2022/08/09 10:56:22;;;;;;;;;;;;;;;;;;5052678;28;20021;-86
2022/08/09 10:58:49;;;;;;;11.52;9.65;;;;;;;;;;5052166;28;19955;-88
2022/08/09 11:01:31;;;;;;;15.55;10.60;;;;;;;;;;5051946;28;20025;-86
2022/08/09 11:04:09;;;;;;;12.80;10.05;;;;;;;;;;5052495;28;20155;-83
2022/08/09 11:06:39;;;;;;;12.23;10.48;;;;;;;;;;5055695;28;20036;-84
2022/08/09 11:09:06;;;;;;;13.20;11.10;;;;;;;;;;5056174;28;20021;-85
2022/08/09 11:11:56;;;;;;;13.65;12.20;;;;;;;;;;5055948;28;20115;-86
2022/08/09 11:14:43;;;;;;;13.35;10.70;;;;;;;;;;5056017;28;20033;-85
2022/08/09 11:17:12;;;;;;;10.90;9.80;;;;;;;;;;5055967;28;20027;-85
2022/08/09 11:19:59;;;;;;;10.65;9.27;;;;;;;;;;5057017;28;20031;-85
2022/08/09 11:22:43;;;;;;;14.80;10.38;;;;;;;;;;5055443;28;20539;-84
2022/08/09 11:25:09;;;;;;;11.73;10.38;;;;;;;;;;5055724;28;20025;-85
2022/08/09 11:27:37;;;;;;;13.48;11.25;;;;;;;;;;5055553;28;20033;-84
2022/08/09 11:30:07;;;;;;;12.52;11.02;;;;;;;;;;5056281;28;20052;-86
2022/08/09 11:32:41;;;;;;;12.13;10.30;;;;;;;;;;5055414;28;20027;-85
2022/08/09 11:35:22;;;;;;;12.05;10.88;;;;;;;;;;5056582;28;20021;-86
2022/08/09 11:37:49;;;;;;;15.90;10.48;;;;;;;;;;5055237;28;20029;-84
2022/08/09 11:40:30;;;;;;;12.48;10.55;;;;;;;;;;5055453;28;20138;-85
2022/08/09 11:42:58;;;;;;;12.85;10.65;;;;;;;;;;5056519;28;20451;-85
2022/08/09 11:45:29;;;;;;;13.00;10.90;;;;;;;;;;5055362;28;20063;-84
2022/08/09 11:47:56;;;;;;;13.07;10.63;;;;;;;;;;5055152;28;20027;-83
2022/08/09 11:50:22;;;;;;;11.32;10.13;;;;;;;;;;5056360;28;20024;-84
2022/08/09 11:52:58;;;;;;;14.75;10.82;;;;;;;;;;5055242;28;20021;-84
2022/08/09 11:55:33;;;;;;;12.80;10.90;;;;;;;;;;5056409;28;20415;-85
2022/08/09 11:58:03;;;;;;;13.35;11.90;;;;;;;;;;5055233;28;20380;-83
2022/08/09 12:00:31;;;;;;;15.23;11.43;;;;;;;;;;5054973;28;20021;-85
2022/08/09 12:02:58;;;;;;;12.45;11.15;;;;;;;;;;5056397;28;20020;-85
2022/08/09 12:05:35;;;;;;;12.68;11.43;;;;;;;;;;5054997;28;20375;-87
2022/08/09 12:08:06;;;;;;;15.35;11.48;;;;;;;;;;5056059;28;20059;-84
2022/08/09 12:10:33;;;;;;;13.57;12.27;;;;;;;;;;5054974;28;20060;-85
2022/08/09 12:12:59;;;;;;;12.55;10.80;;;;;;;;;;5054710;28;20434;-83
2022/08/09 12:15:26;;;;;;;16.48;11.48;;;;;;;;;;5054076;28;20083;-85
2022/08/09 12:17:53;;;;;;;17.92;11.60;;;;;;;;;;5054432;28;20025;-83
2022/08/09 12:20:21;;;;;;;12.50;10.20;;;;;;;;;;5054704;28;20365;-83
2022/08/09 12:22:48;;;;;;;13.15;11.25;;;;;;;;;;5055453;28;20539;-84
2022/08/09 12:25:15;;;;;;;13.20;11.80;;;;;;;;;;5054476;28;20060;-83
2022/08/09 12:27:41;;;;;;;12.73;10.30;;;;;;;;;;5055779;28;20057;-84
2022/08/09 12:30:08;;;;;;;13.60;11.52;;;;;;;;;;5053816;28;20049;-87
2022/08/09 12:32:34;;;;;;;12.85;11.25;;;;;;;;;;5054505;28;20021;-84
2022/08/09 12:35:02;;;;;;;14.73;12.00;;;;;;;;;;5054552;28;20017;-84
2022/08/09 12:37:35;;;;;;;13.88;11.25;;;;;;;;;;5054108;28;20025;-83
2022/08/09 12:40:06;;;;;;;14.80;11.95;;;;;;;;;;5054484;28;20028;-84
2022/08/09 12:42:33;;;;;;;15.00;11.30;;;;;;;;;;5054275;28;20027;-82
2022/08/09 12:45:00;;;;;;;12.00;10.80;;;;;;;;;;5055896;28;20527;-84
2022/08/09 12:47:26;;;;;;;12.65;11.23;;;;;;;;;;5054004;28;20097;-84
2022/08/09 12:50:26;;;;;;;15.30;11.68;;;;;;;;;;5053658;28;20025;-86
2022/08/09 12:52:47;;;;;;;17.50;11.77;;;;;;;;;;5054124;28;20472;-84
2022/08/09 12:55:31;;;;;;;13.27;9.95;;;;;;;;;;5055289;28;20025;-85
2022/08/09 12:57:57;;;;;;;13.57;11.48;;;;;;;;;;5054080;28;20021;-85
2022/08/09 13:00:25;;;;;;;12.70;11.40;;;;;;;;;;5053587;28;20056;-84
2022/08/09 13:02:53;;;;;;;17.05;10.63;;;;;;;;;;5055185;28;20025;-84
2022/08/09 13:05:20;;;;;;;13.88;12.20;;;;;;;;;;5053624;28;20024;-81
2022/08/09 13:08:04;;;;;;;13.90;10.90;;;;;;;;;;5053637;28;20037;-83
2022/08/09 13:10:31;;;;;;;12.90;10.85;;;;;;;;;;5054530;28;20049;-83
2022/08/09 13:12:59;;;;;;;13.27;10.38;;;;;;;;;;5053696;28;20029;-83
2022/08/09 13:15:25;;;;;;;15.63;10.82;;;;;;;;;;5053560;28;20471;-85
2022/08/09 13:17:51;;;;;;;13.52;12.23;;;;;;;;;;5054652;28;20116;-83
2022/08/09 13:20:31;;;;;;;12.45;11.15;;;;;;;;;;5053488;28;20079;-83
2022/08/09 13:22:59;;;;;;;15.32;11.05;;;;;;;;;;5053448;28;20025;-84
2022/08/09 13:25:25;;;;;;;13.57;11.32;;;;;;;;;;5053154;28;20021;-82
2022/08/09 13:27:51;;;;;;;14.70;10.68;;;;;;;;;;5052427;28;20391;-83
2022/08/09 13:30:19;;;;;;;13.25;11.85;;;;;;;;;;5053044;28;20103;-83